My Meet Scores
Lucia Lucente, Aerial Gymnastics Club - MyMeetScores.com
Top100 | Top Teams | Upcoming Meets | Completed Meets | Latest | Add Scores | Help| Support | Bookmark and Share

Lucia Lucente, Aerial Gymnastics Club
Personal Bests
LevelVault BarsBeamFloorAA
39.3009.500 8.9509.05036.150
48.8008.900 9.2758.92534.975
58.5008.150 8.1008.62533.375
Meet Scores
Date Meet Team Session Level Division Vault Bars Beam Floor AA
2019-12-06 Ultimate Wish Classic Aerial Gymnastics Club 6B 5 SR B 8.500 14 8.150 8T 8.100 12 8.625 9T 33.375 12
2019-02-15 Women's Midwest Open Aerial Gymnastics Club 09 4 Senior B 8.000 12T 8.850 12 8.950 7T 8.850 13T 34.650 10
2019-01-19 2019 Hang 10.0 Invitational Aerial Gymnastics Club 1 4 10-11 Yr O 8.250 8T 8.850 5T 9.000 5T 8.600 6T 34.700 4
2019-01-11 St Jude Benefit Meet Aerial Gymnastics Club 7A 4 Sr B 8.800 8T 0.000 18T 9.175 4 8.925 9 26.900 17
2018-11-30 Ultimate Wish Classic Aerial Gymnastics Club 11 4 SR B 8.250 17 8.900 9 9.275 4 8.550 16 34.975 12
2018-03-08 Level 4 & 5 State Infinity Gymnastics Academy All 4 Jr D 8.725 17T 8.425 23 9.050 16 8.425 25 34.625 21
2018-02-23 Kinetic Classic Infinity Gymnastics Academy 7 4 Older 8.350 41T 7.750 83T 8.900 56T 8.650 62T 33.650 69
2018-02-17 Women's Midwest Open Infinity Gymnastics Academy 08 4 JR B 8.600 9 8.425 12 8.650 9 8.525 15 34.200 12
2018-02-02 Chris Waller's Heart Of A Champion Invitational Infinity Gymnastics Academy 12H 4 Jr C 8.775 6 8.350 8 8.125 11T 7.950 14 33.200 11
2018-01-18 Circle Of Stars Gymnastics Invitational Infinity Gymnastics Academy C3 4 Jr C 8.600 10T 7.675 21 8.925 12 7.900 20 33.100 19
2018-01-12 St Jude Benefit Meet Infinity Gymnastics Academy 3A 4 SrA 7.500 17 8.000 14 9.000 6T 7.950 17 32.450 16
2017-12-14 2017 Women's Hawaiian Pineapple Classic Infinity Gymnastics Academy 1A 4 Age10 7.250 26 7.450 27 8.500 18 8.525 18T 31.725 23
2017-11-10 Illinois NAWGJ Judges Cup 2017 Infinity Gymnastics Academy G3 4 All Ages 7.100 72 8.250 43 8.000 61T 8.000 58T 31.350 61
2017-03-30 2017 Illinois Level 3 & 5 State Infinity Gymnastics Academy All 3 Jr E 9.200 25T 9.400 8T 8.650 22T 8.650 24T 35.900 17
2017-03-10 Lucky Invitational Infinity Gymnastics Academy B02 3 Sr A 8.900 9 9.500 2 8.700 8 9.050 9 36.150 7
2017-02-24 Houston National Invitational - Ocean View Infinity Gymnastics Academy O03 3 Sr A 9.300 4 9.300 2 7.000 11 9.000 10 34.600 6
2017-02-10 IGI Chicago Style Gymnastics Meet Infinity Gymnastics Academy 232L 3 JrC 9.000 17 9.075 9 8.950 12 8.400 14 35.425 11
2017-01-28 Wisconsin Dells Gymnastics Vacation Classic - USAG Infinity Gymnastics Academy B6 3 Junior B 9.225 5 9.050 7 8.850 8T 8.775 6 35.900 7
2017-01-13 St Jude Benefit Meet Infinity Gymnastics Academy 9A 3 Sr A 8.875 13 9.400 7T 8.000 16 8.300 18 34.575 15
2016-12-15 2016 Hawaiian Pineapple Sanction Infinity Gymnastics Academy 5B 3 Age 9 8.900 22 8.750 12 8.700 11T 8.200 22 34.550 18
2016-11-11 2016 Illinois Judges Cup Infinity Gymnastics Academy B6 3 9-10 Year 8.900 16 8.950 4T 8.350 10T 8.100 16 34.300 12T
Get your scores on
a t-shirt, pin, or hoodie

Order by December 13

www.lazysuits.com